createdAt,value
2019-05-02T00:00:03.428Z,20.51
2019-05-02T00:01:03.424Z,22.42
2019-05-02T00:02:03.065Z,19.36
2019-05-02T00:03:05.682Z,21.21
2019-05-02T00:04:03.169Z,21.29
2019-05-02T00:05:03.222Z,19.71
2019-05-02T00:06:09.218Z,20.59
2019-05-02T00:07:03.112Z,21.1
2019-05-02T00:08:03.593Z,17.62
2019-05-02T00:09:08.982Z,19.59
2019-05-02T00:10:03.357Z,19.59
2019-05-02T00:11:02.756Z,19.55
2019-05-02T00:12:02.851Z,19.79
2019-05-02T00:13:02.959Z,19.79
2019-05-02T00:14:03.677Z,18.36
2019-05-02T00:15:03.666Z,18.36
2019-05-02T00:16:02.732Z,19.43
2019-05-02T00:17:03.802Z,19.97
2019-05-02T00:18:03.514Z,19.72
2019-05-02T00:19:03.777Z,19.5
2019-05-02T00:20:03.831Z,19.46
2019-05-02T00:21:03.410Z,19.06
2019-05-02T00:22:03.467Z,19.21
2019-05-02T00:23:03.261Z,19.4
2019-05-02T00:24:04.284Z,20.04
2019-05-02T00:25:03.641Z,19.27
2019-05-02T00:26:03.594Z,19.73
2019-05-02T00:27:03.330Z,20.78
2019-05-02T00:28:03.561Z,19.23
2019-05-02T00:29:03.203Z,21.71
2019-05-02T00:30:03.421Z,19.89
2019-05-02T00:31:11.454Z,17.8
2019-05-02T00:32:03.161Z,20.51
2019-05-02T00:33:03.148Z,21.95
2019-05-02T00:34:02.969Z,20.35
2019-05-02T00:35:03.153Z,20.18
2019-05-02T00:36:02.672Z,19.79
2019-05-02T00:37:03.472Z,20.21
2019-05-02T00:38:03.967Z,19.26
2019-05-02T00:39:03.196Z,19.22
2019-05-02T00:40:03.111Z,18.35
2019-05-02T00:41:03.860Z,20.98
2019-05-02T00:42:13.117Z,19.39
2019-05-02T00:43:03.510Z,20.31
2019-05-02T00:44:10.849Z,19.13
2019-05-02T00:45:02.900Z,19.83
2019-05-02T00:46:02.850Z,19.28
2019-05-02T00:47:10.769Z,20.77
2019-05-02T00:48:02.814Z,20.81
2019-05-02T00:49:03.633Z,19.89
2019-05-02T00:50:11.075Z,19.53
2019-05-02T00:51:03.274Z,19.01
2019-05-02T00:52:03.638Z,21.16
2019-05-02T00:53:11.892Z,18.99
2019-05-02T00:54:03.378Z,20.69
2019-05-02T00:55:03.440Z,19.52
2019-05-02T00:56:08.961Z,20.42
2019-05-02T00:57:03.177Z,20.64
2019-05-02T00:58:03.383Z,20.5
2019-05-02T00:59:08.792Z,18.58
2019-05-02T01:00:03.013Z,19.36
2019-05-02T01:01:03.775Z,19.57
2019-05-02T01:02:07.171Z,19.57
2019-05-02T01:03:02.859Z,20.24
2019-05-02T01:04:03.191Z,19.97
2019-05-02T01:05:04.612Z,19.97
2019-05-02T01:06:02.901Z,19.34
2019-05-02T01:07:03.632Z,20.33
2019-05-02T01:08:03.143Z,20.33
2019-05-02T01:09:10.819Z,20.25
2019-05-02T01:10:02.907Z,20.71
2019-05-02T01:11:03.174Z,19.91
2019-05-02T01:12:09.852Z,19.92
2019-05-02T01:13:03.860Z,19.65
2019-05-02T01:14:03.765Z,19
2019-05-02T01:15:09.628Z,19.6
2019-05-02T01:16:03.339Z,18.18
2019-05-02T01:17:03.468Z,20.02
2019-05-02T01:18:07.903Z,20.65
2019-05-02T01:19:03.154Z,19.44
2019-05-02T01:20:03.184Z,20.15
2019-05-02T01:21:04.273Z,19.21
2019-05-02T01:22:03.368Z,19.17
2019-05-02T01:23:03.150Z,20.94
2019-05-02T01:24:04.450Z,20.54
2019-05-02T01:25:03.212Z,19.17
2019-05-02T01:26:03.088Z,19.41
2019-05-02T01:27:06.445Z,20.51
2019-05-02T01:28:03.086Z,20.74
2019-05-02T01:29:02.828Z,20.23
2019-05-02T01:30:07.310Z,21.41
2019-05-02T01:31:03.787Z,20.09
2019-05-02T01:32:02.859Z,19.84
2019-05-02T01:33:07.718Z,20.59
2019-05-02T01:34:02.913Z,20.96
2019-05-02T01:35:03.658Z,20.79
2019-05-02T01:36:08.102Z,19.61
2019-05-02T01:37:02.875Z,19.98
2019-05-02T01:38:03.413Z,20.24
2019-05-02T01:39:08.701Z,19.7
2019-05-02T01:40:03.716Z,19.31
2019-05-02T01:41:03.668Z,19.13
2019-05-02T01:42:05.367Z,19.24
2019-05-02T01:43:03.512Z,20.31
2019-05-02T01:44:03.432Z,20.16
2019-05-02T01:45:11.082Z,18.66
2019-05-02T01:46:03.606Z,20.02
2019-05-02T01:47:03.457Z,19.34
2019-05-02T01:48:05.107Z,20.71
2019-05-02T01:49:03.048Z,19.76
2019-05-02T01:50:03.465Z,19.76
2019-05-02T01:51:09.902Z,19.07
2019-05-02T01:52:03.197Z,19.37
2019-05-02T01:53:03.152Z,19.37
2019-05-02T01:54:09.836Z,17.89
2019-05-02T01:55:03.143Z,17.89
2019-05-02T01:56:03.123Z,18.89
2019-05-02T01:57:08.566Z,18.89
2019-05-02T01:58:02.904Z,20.61
2019-05-02T01:59:03.628Z,16.88
2019-05-02T02:00:09.270Z,19.72
2019-05-02T02:01:02.709Z,18.05
2019-05-02T02:02:03.712Z,18.86
2019-05-02T02:03:08.816Z,21.1
2019-05-02T02:04:03.461Z,19.74
2019-05-02T02:05:03.719Z,20.52
2019-05-02T02:06:09.976Z,19.03
2019-05-02T02:07:03.567Z,20.42
2019-05-02T02:08:03.814Z,20.39
2019-05-02T02:09:09.661Z,20.89
2019-05-02T02:10:03.663Z,19.99
2019-05-02T02:11:03.185Z,21.68
2019-05-02T02:12:09.615Z,20.24
2019-05-02T02:13:05.407Z,20.99
2019-05-02T02:14:12.412Z,21.26
2019-05-02T02:15:03.158Z,18.48
2019-05-02T02:16:05.831Z,19.96
2019-05-02T02:17:03.074Z,21.34
2019-05-02T02:18:03.021Z,20.4
2019-05-02T02:19:05.340Z,20.3
2019-05-02T02:20:03.101Z,20.42
2019-05-02T02:21:02.981Z,20.52
2019-05-02T02:22:04.513Z,20.75
2019-05-02T02:23:03.749Z,21.11
2019-05-02T02:24:02.941Z,21.99
2019-05-02T02:25:03.048Z,20.57
2019-05-02T02:26:11.781Z,21.29
2019-05-02T02:27:02.600Z,22.09
2019-05-02T02:28:03.314Z,21.84
2019-05-02T02:29:09.310Z,20.78
2019-05-02T02:30:03.701Z,20.87
2019-05-02T02:31:07.554Z,20.34
2019-05-02T02:32:03.799Z,19.72
2019-05-02T02:33:09.564Z,19.82
2019-05-02T02:34:03.744Z,19
2019-05-02T02:35:10.259Z,19.62
2019-05-02T02:36:03.505Z,20.7
2019-05-02T02:37:12.326Z,17.79
2019-05-02T02:38:03.751Z,17.79
2019-05-02T02:40:03.694Z,18.97
2019-05-02T02:41:12.892Z,18.97
2019-05-02T02:42:03.228Z,19.47
2019-05-02T02:43:31.566Z,19.47
2019-05-02T02:44:03.378Z,18.88
2019-05-02T02:45:03.695Z,17.27
2019-05-02T02:46:03.245Z,18.89
2019-05-02T02:47:02.971Z,18.29
2019-05-02T02:48:03.038Z,17.05
2019-05-02T02:49:03.210Z,16.92
2019-05-02T02:50:05.640Z,17.15
2019-05-02T02:51:02.874Z,17.12
2019-05-02T02:52:06.839Z,18.01
2019-05-02T02:53:03.393Z,16.76
2019-05-02T02:54:05.896Z,16.53
2019-05-02T02:55:04.005Z,16.71
2019-05-02T02:56:04.243Z,16.09
2019-05-02T02:57:03.569Z,17.55
2019-05-02T02:58:06.429Z,16.55
2019-05-02T02:59:03.470Z,15.38
2019-05-02T03:00:10.664Z,16.55
2019-05-02T03:01:03.536Z,15.63
2019-05-02T03:02:11.951Z,17.08
2019-05-02T03:03:03.495Z,16.39
2019-05-02T03:04:12.048Z,15.61
2019-05-02T03:05:03.202Z,15.19
2019-05-02T03:06:07.945Z,16.04
2019-05-02T03:07:03.407Z,15.7
2019-05-02T03:08:07.107Z,15.06
2019-05-02T03:09:03.177Z,14.29
2019-05-02T03:10:08.147Z,14.49
2019-05-02T03:11:03.167Z,14.71
2019-05-02T03:12:04.781Z,14.31
2019-05-02T03:13:03.042Z,14.65
2019-05-02T03:14:09.557Z,14.19
2019-05-02T03:15:02.637Z,14.41
2019-05-02T03:16:09.234Z,14.02
2019-05-02T03:17:03.066Z,14.08
2019-05-02T03:18:03.958Z,14.66
2019-05-02T03:19:03.603Z,14.64
2019-05-02T03:20:04.058Z,13.3
2019-05-02T03:21:03.525Z,14.25
2019-05-02T03:22:04.316Z,13.66
2019-05-02T03:23:03.730Z,14.04
2019-05-02T03:24:06.108Z,13.44
2019-05-02T03:25:03.921Z,13.06
2019-05-02T03:26:14.732Z,13.75
2019-05-02T03:27:03.668Z,13.56
2019-05-02T03:28:03.315Z,13.56
2019-05-02T03:29:03.666Z,13.21
2019-05-02T03:30:03.633Z,13.26
2019-05-02T03:31:24.581Z,13.26
2019-05-02T03:32:26.875Z,13.96
2019-05-02T03:33:12.078Z,13.96
2019-05-02T03:34:03.305Z,12.41
2019-05-02T03:35:03.384Z,13.48
2019-05-02T03:36:02.993Z,13.48
2019-05-02T03:37:13.422Z,13.69
2019-05-02T03:38:03.083Z,12.41
2019-05-02T03:39:16.932Z,12.41
2019-05-02T03:40:03.987Z,14
2019-05-02T03:41:03.019Z,12.55
2019-05-02T03:42:05.277Z,12.63
2019-05-02T03:43:03.645Z,12.12
2019-05-02T03:44:14.233Z,10.69
2019-05-02T03:45:05.440Z,12.11
2019-05-02T03:46:02.873Z,11.18
2019-05-02T03:47:05.313Z,11.25
2019-05-02T03:48:03.815Z,11.04
2019-05-02T03:49:09.646Z,10.33
2019-05-02T03:50:03.723Z,11.01
2019-05-02T03:52:06.102Z,10.89
2019-05-02T03:53:03.402Z,9.86
2019-05-02T03:54:10.269Z,11.56
2019-05-02T03:55:03.475Z,10.28
2019-05-02T03:56:13.423Z,9.88
2019-05-02T03:57:03.389Z,9.69
2019-05-02T03:58:13.967Z,10.85
2019-05-02T03:59:02.991Z,10.35
2019-05-02T04:00:03.229Z,10.28
2019-05-02T04:01:04.103Z,10.81
2019-05-02T04:02:03.156Z,11.02
2019-05-02T04:03:02.805Z,9.72
2019-05-02T04:04:02.654Z,9.98
2019-05-02T04:05:03.980Z,10.59
2019-05-02T04:06:03.991Z,9.54
2019-05-02T04:07:03.624Z,9.54
2019-05-02T04:08:02.713Z,10.55
2019-05-02T04:09:03.635Z,10.42
2019-05-02T04:10:03.882Z,9.53
2019-05-02T04:11:02.952Z,10.32
2019-05-02T04:12:03.048Z,9.54
2019-05-02T04:13:03.630Z,9.61
2019-05-02T04:14:18.902Z,10.65
2019-05-02T04:15:03.889Z,9.9
2019-05-02T04:16:16.973Z,9.05
2019-05-02T04:17:03.411Z,9.75
2019-05-02T04:19:03.607Z,9.66
2019-05-02T04:20:12.218Z,9.46
2019-05-02T04:21:03.569Z,10.58
2019-05-02T04:22:11.424Z,9.75
2019-05-02T04:23:03.513Z,9.83
2019-05-02T04:24:15.508Z,9.08
2019-05-02T04:25:06.614Z,9.07
2019-05-02T04:26:12.536Z,9.24
2019-05-02T04:27:03.209Z,10.13
2019-05-02T04:29:03.071Z,9.14
2019-05-02T04:30:14.155Z,7.94
2019-05-02T04:31:02.989Z,8.59
2019-05-02T04:32:13.930Z,9.58
2019-05-02T04:33:03.026Z,9.51
2019-05-02T04:34:17.389Z,9.61
2019-05-02T04:35:02.900Z,8.25
2019-05-02T04:36:14.997Z,9.5
2019-05-02T04:37:04.354Z,9.25
2019-05-02T04:38:19.928Z,8.27
2019-05-02T04:39:15.849Z,8.59
2019-05-02T04:40:11.903Z,8.91
2019-05-02T04:41:03.492Z,8.94
2019-05-02T04:42:19.348Z,9.04
2019-05-02T04:43:11.331Z,9.31
2019-05-02T04:44:02.031Z,9.26
2019-05-02T04:45:26.155Z,9.38
2019-05-02T04:46:02.157Z,8.29
2019-05-02T04:47:16.861Z,9.49
2019-05-02T04:48:04.281Z,8.89
2019-05-02T04:49:03.161Z,8.36
2019-05-02T04:51:16.239Z,9.59
2019-05-02T04:52:11.709Z,9.06
2019-05-02T04:53:03.256Z,8.44
2019-05-02T04:54:02.978Z,9.23
2019-05-02T04:55:25.579Z,8.56
2019-05-02T04:56:10.488Z,9.05
2019-05-02T04:57:02.988Z,7.89
2019-05-02T04:58:02.822Z,8.51
2019-05-02T04:59:19.716Z,9.02
2019-05-02T05:00:11.675Z,8.15
2019-05-02T05:01:03.607Z,8.85
2019-05-02T05:02:02.831Z,9.17
2019-05-02T05:03:15.180Z,8.96
2019-05-02T05:04:03.525Z,8.45
2019-05-02T05:05:03.670Z,7.71
2019-05-02T05:06:12.024Z,8.64
2019-05-02T05:07:03.890Z,8.64
2019-05-02T05:08:03.634Z,8.95
2019-05-02T05:09:09.540Z,8.96
2019-05-02T05:10:03.821Z,8.96
2019-05-02T05:11:03.760Z,8.76
2019-05-02T05:12:03.430Z,8.81
2019-05-02T05:13:03.543Z,8.81
2019-05-02T05:14:03.421Z,9
2019-05-02T05:15:03.234Z,9.07
2019-05-02T05:16:12.866Z,9.07
2019-05-02T05:17:03.449Z,8.65
2019-05-02T05:18:09.476Z,9.27
2019-05-02T05:19:03.290Z,9.38
2019-05-02T05:20:14.269Z,8.81
2019-05-02T05:21:03.264Z,9.22
2019-05-02T05:22:06.396Z,9.06
2019-05-02T05:23:03.263Z,8.56
2019-05-02T05:24:02.907Z,8.36
2019-05-02T05:25:02.926Z,8.25
2019-05-02T05:26:06.837Z,9.56
2019-05-02T05:27:03.030Z,8.13
2019-05-02T05:28:06.862Z,8.12
2019-05-02T05:29:03.086Z,7.94
2019-05-02T05:30:15.376Z,8.3
2019-05-02T05:31:02.857Z,8.22
2019-05-02T05:32:09.814Z,7.12
2019-05-02T05:33:02.764Z,7.8
2019-05-02T05:34:03.090Z,9.06
2019-05-02T05:35:11.266Z,8.06
2019-05-02T05:36:03.385Z,7.66
2019-05-02T05:37:08.587Z,8.11
2019-05-02T05:38:03.574Z,7.26
2019-05-02T05:39:11.625Z,7.72
2019-05-02T05:40:03.348Z,7.57
2019-05-02T05:41:12.890Z,8
2019-05-02T05:42:03.644Z,7.96
2019-05-02T05:43:16.234Z,8.46
2019-05-02T05:44:03.617Z,8.11
2019-05-02T05:45:08.911Z,8.65
2019-05-02T05:46:13.026Z,7.54
2019-05-02T05:47:03.529Z,7.99
2019-05-02T05:48:03.388Z,8.51
2019-05-02T05:49:03.358Z,8.14
2019-05-02T05:50:03.367Z,8.31
2019-05-02T05:51:03.258Z,8.62
2019-05-02T05:52:04.141Z,7.83
2019-05-02T05:53:03.145Z,7.99
2019-05-02T05:54:03.424Z,8.94
2019-05-02T05:55:05.177Z,8.08
2019-05-02T05:56:03.160Z,8.75
2019-05-02T05:57:03.028Z,8.77
2019-05-02T05:58:15.606Z,8.77
2019-05-02T05:59:02.843Z,8.58
2019-05-02T06:00:09.327Z,8.8
2019-05-02T06:01:03.124Z,8.8
2019-05-02T06:02:10.967Z,8.86
2019-05-02T06:03:14.096Z,8.77
2019-05-02T06:04:03.670Z,8.77
2019-05-02T06:05:03.968Z,8.82
2019-05-02T06:06:03.678Z,8.8
2019-05-02T06:07:03.451Z,8.93
2019-05-02T06:08:02.906Z,8.69
2019-05-02T06:09:03.762Z,8.75
2019-05-02T06:10:08.226Z,8.48
2019-05-02T06:11:03.335Z,8.55
2019-05-02T06:12:04.129Z,8.11
2019-05-02T06:13:10.784Z,8.59
2019-05-02T06:14:03.142Z,8.6
2019-05-02T06:15:03.930Z,8.34
2019-05-02T06:16:03.853Z,8.56
2019-05-02T06:17:03.382Z,9.15
2019-05-02T06:18:06.051Z,8.71
2019-05-02T06:19:03.263Z,8.59
2019-05-02T06:20:03.246Z,8.1
2019-05-02T06:21:10.634Z,8.44
2019-05-02T06:22:03.146Z,9.35
2019-05-02T06:23:03.136Z,8.42
2019-05-02T06:24:02.957Z,8.24
2019-05-02T06:25:09.871Z,8.33
2019-05-02T06:26:13.249Z,8.3
2019-05-02T06:27:02.869Z,8.1
2019-05-02T06:28:06.876Z,10.16
2019-05-02T06:29:03.110Z,8.39
2019-05-02T06:30:03.715Z,8.76
2019-05-02T06:31:08.576Z,9.14
2019-05-02T06:32:03.792Z,8.81
2019-05-02T06:33:03.739Z,9.84
2019-05-02T06:34:08.333Z,8.95
2019-05-02T06:35:03.809Z,8.67
2019-05-02T06:36:03.574Z,7.92
2019-05-02T06:37:03.338Z,9.12
2019-05-02T06:38:03.139Z,8.4
2019-05-02T06:39:03.299Z,8.62
2019-05-02T06:40:09.402Z,8.9
2019-05-02T06:41:03.248Z,8.46
2019-05-02T06:42:03.348Z,8.47
2019-05-02T06:43:09.493Z,8.77
2019-05-02T06:44:03.262Z,8.32
2019-05-02T06:45:03.029Z,8.36
2019-05-02T06:46:16.644Z,8.27
2019-05-02T06:47:05.602Z,8.27
2019-05-02T06:48:03.408Z,8.24
2019-05-02T06:49:03.199Z,8.55
2019-05-02T06:50:03.561Z,8.71
2019-05-02T06:51:03.317Z,9.23
2019-05-02T06:52:03.007Z,8.51
2019-05-02T06:53:09.393Z,8.51
2019-05-02T06:54:02.825Z,9.19
2019-05-02T06:55:03.093Z,7.94
2019-05-02T06:56:03.258Z,9.07
2019-05-02T06:57:03.198Z,9.29
2019-05-02T06:58:08.324Z,8.9
2019-05-02T06:59:03.173Z,9.26
2019-05-02T07:00:03.046Z,8.34
2019-05-02T07:01:03.013Z,7.81
2019-05-02T07:02:02.777Z,9.36
2019-05-02T07:03:09.997Z,8.35
2019-05-02T07:04:04.577Z,8.48
2019-05-02T07:05:04.050Z,8.37
2019-05-02T07:06:07.491Z,9.02
2019-05-02T07:07:03.982Z,9.25
2019-05-02T07:08:13.305Z,8.63
2019-05-02T07:09:03.682Z,8.63
2019-05-02T07:10:03.586Z,8.96
2019-05-02T07:11:03.529Z,8.15
2019-05-02T07:12:03.361Z,8.31
2019-05-02T07:13:13.195Z,8.76
2019-05-02T07:14:13.964Z,9.15
2019-05-02T07:15:03.947Z,8.98
2019-05-02T07:16:03.737Z,9.35
2019-05-02T07:17:06.009Z,8.89
2019-05-02T07:18:10.539Z,9.16
2019-05-02T07:19:03.327Z,9.07
2019-05-02T07:20:05.315Z,8.56
2019-05-02T07:21:03.429Z,9.1
2019-05-02T07:22:04.658Z,9.38
2019-05-02T07:23:03.175Z,8.96
2019-05-02T07:24:02.964Z,9.05
2019-05-02T07:25:08.846Z,9.52
2019-05-02T07:26:02.713Z,9.34
2019-05-02T07:27:03.399Z,9.37
2019-05-02T07:28:09.030Z,8.42
2019-05-02T07:29:02.927Z,8.97
2019-05-02T07:30:02.786Z,8.95
2019-05-02T07:31:11.790Z,9.64
2019-05-02T07:32:03.784Z,8.69
2019-05-02T07:33:03.547Z,9.44
2019-05-02T07:34:02.881Z,10.53
2019-05-02T07:35:03.590Z,9.34
2019-05-02T07:36:03.611Z,10.02
2019-05-02T07:37:12.457Z,8.75
2019-05-02T07:38:03.970Z,8.75
2019-05-02T07:39:06.425Z,9.39
2019-05-02T07:40:03.280Z,9.99
2019-05-02T07:41:03.410Z,9.99
2019-05-02T07:42:07.830Z,9.74
2019-05-02T07:43:03.447Z,9.65
2019-05-02T07:44:04.552Z,9.65
2019-05-02T07:45:09.240Z,8.78
2019-05-02T07:46:03.288Z,9.88
2019-05-02T07:47:04.823Z,10.38
2019-05-02T07:48:03.287Z,9.01
2019-05-02T07:49:03.471Z,9.24
2019-05-02T07:50:10.179Z,9.52
2019-05-02T07:51:03.318Z,8.86
2019-05-02T07:52:03.099Z,9.46
2019-05-02T07:53:09.104Z,9.52
2019-05-02T07:54:03.033Z,9.86
2019-05-02T07:55:09.867Z,9.14
2019-05-02T07:56:03.251Z,9.95
2019-05-02T07:57:03.267Z,9.85
2019-05-02T07:58:08.129Z,9.73
2019-05-02T07:59:03.024Z,9.84
2019-05-02T08:00:03.637Z,10.06
2019-05-02T08:01:02.526Z,9.32
2019-05-02T08:02:04.328Z,9.4
2019-05-02T08:03:05.267Z,9.74
2019-05-02T08:04:10.907Z,9.12
2019-05-02T08:05:03.873Z,8.85
2019-05-02T08:06:03.819Z,9.53
2019-05-02T08:07:03.194Z,10.31
2019-05-02T08:08:03.587Z,9.59
2019-05-02T08:09:09.031Z,8.9
2019-05-02T08:10:03.713Z,10.11
2019-05-02T08:11:03.405Z,9.37
2019-05-02T08:12:03.617Z,9.16
2019-05-02T08:13:03.458Z,8.18
2019-05-02T08:14:03.202Z,9.17
2019-05-02T08:15:12.886Z,10.02
2019-05-02T08:16:03.259Z,9.72
2019-05-02T08:17:10.509Z,9.56
2019-05-02T08:18:03.058Z,9.93
2019-05-02T08:19:06.764Z,10.19
2019-05-02T08:20:08.484Z,8.27
2019-05-02T08:21:03.003Z,9.15
2019-05-02T08:22:12.884Z,9.89
2019-05-02T08:23:03.007Z,9.16
2019-05-02T08:24:03.834Z,9.87
2019-05-02T08:25:03.689Z,9.31
2019-05-02T08:26:03.223Z,8.73
2019-05-02T08:27:03.041Z,8.73
2019-05-02T08:28:04.969Z,10
2019-05-02T08:29:03.019Z,9.95
2019-05-02T08:30:05.862Z,10.04
2019-05-02T08:31:03.672Z,10.73
2019-05-02T08:32:02.930Z,9.38
2019-05-02T08:33:03.600Z,9.86
2019-05-02T08:34:14.378Z,8.2
2019-05-02T08:35:03.601Z,9.31
2019-05-02T08:36:03.661Z,10.38
2019-05-02T08:37:05.029Z,8.81
2019-05-02T08:38:03.492Z,8.6
2019-05-02T08:39:03.147Z,8.56
2019-05-02T08:40:10.343Z,9.49
2019-05-02T08:41:03.513Z,9.53
2019-05-02T08:42:02.999Z,10.04
2019-05-02T08:43:10.800Z,8.72
2019-05-02T08:44:03.170Z,9.04
2019-05-02T08:45:03.309Z,8.72
2019-05-02T08:46:02.989Z,9.29
2019-05-02T08:47:03.044Z,10.41
2019-05-02T08:48:06.506Z,9.28
2019-05-02T08:49:02.569Z,9.23
2019-05-02T08:50:02.844Z,9.06
2019-05-02T08:51:03.649Z,9.02
2019-05-02T08:52:03.629Z,9.39
2019-05-02T08:53:03.411Z,8.85
2019-05-02T08:54:03.786Z,9.08
2019-05-02T08:55:09.473Z,8.72
2019-05-02T08:56:03.426Z,8.73
2019-05-02T08:57:03.421Z,8.61
2019-05-02T08:58:14.186Z,9.71
2019-05-02T08:59:03.286Z,9.18
2019-05-02T09:00:03.800Z,8.95
2019-05-02T09:01:03.047Z,8.75
2019-05-02T09:02:03.716Z,8.84
2019-05-02T09:03:04.905Z,9.46
2019-05-02T09:04:03.058Z,7.72
2019-05-02T09:05:04.894Z,9.56
2019-05-02T09:06:06.448Z,8.28
2019-05-02T09:07:03.279Z,8.35
2019-05-02T09:08:02.885Z,9.49
2019-05-02T09:09:02.975Z,9.64
2019-05-02T09:10:07.768Z,8.63
2019-05-02T09:11:02.744Z,8.87
2019-05-02T09:12:14.597Z,9.17
2019-05-02T09:13:02.932Z,9.34
2019-05-02T09:14:02.819Z,9.34
2019-05-02T09:15:02.894Z,8.74
2019-05-02T09:16:06.192Z,8.65
2019-05-02T09:17:14.150Z,8.65
2019-05-02T09:18:03.880Z,8.42
2019-05-02T09:19:03.220Z,7.66
2019-05-02T09:20:16.474Z,9.11
2019-05-02T09:21:03.335Z,8.05
2019-05-02T09:22:12.281Z,8.05
2019-05-02T09:23:03.386Z,7.68
2019-05-02T09:24:03.537Z,8.1
2019-05-02T09:25:03.257Z,8.74
2019-05-02T09:26:03.160Z,8.54
2019-05-02T09:27:03.694Z,8.19
2019-05-02T09:28:03.456Z,8.63
2019-05-02T09:29:05.665Z,7.24
2019-05-02T09:30:03.261Z,8.08
2019-05-02T09:31:07.073Z,9.26
2019-05-02T09:32:03.027Z,8.55
2019-05-02T09:33:06.828Z,8.41
2019-05-02T09:34:02.961Z,8.98
2019-05-02T09:35:06.440Z,8.44
2019-05-02T09:36:03.050Z,8.68
2019-05-02T09:37:02.926Z,8.01
2019-05-02T09:38:02.668Z,8.34
2019-05-02T09:39:03.059Z,7.88
2019-05-02T09:40:11.553Z,7.62
2019-05-02T09:41:19.132Z,8.94
2019-05-02T09:42:11.259Z,8.98
2019-05-02T09:43:04.961Z,7.65
2019-05-02T09:44:03.531Z,8.15
2019-05-02T09:45:03.667Z,7.69
2019-05-02T09:46:12.072Z,8.12
2019-05-02T09:47:03.638Z,8.35
2019-05-02T09:48:08.205Z,7.72
2019-05-02T09:49:14.320Z,8.84
2019-05-02T09:50:03.803Z,7.41
2019-05-02T09:51:16.412Z,8.58
2019-05-02T09:52:03.603Z,8.22
2019-05-02T09:53:03.514Z,8.22
2019-05-02T09:54:06.522Z,6.89
2019-05-02T09:55:03.468Z,7.88
2019-05-02T09:56:03.423Z,7.88
2019-05-02T09:57:03.032Z,8.1
2019-05-02T09:58:02.935Z,7.15
2019-05-02T09:59:29.418Z,7.15
2019-05-02T10:00:03.462Z,8.36
2019-05-02T10:01:03.046Z,7.84
2019-05-02T10:02:03.146Z,7.85
2019-05-02T10:03:03.321Z,8.24
2019-05-02T10:04:03.278Z,7.54
2019-05-02T10:05:03.329Z,7.11
2019-05-02T10:06:03.434Z,7.8
2019-05-02T10:07:03.288Z,7.14
2019-05-02T10:08:09.181Z,8.59
2019-05-02T10:09:02.989Z,7.98
2019-05-02T10:10:06.774Z,7.23
2019-05-02T10:11:03.821Z,8.04
2019-05-02T10:12:02.801Z,7.55
2019-05-02T10:13:02.970Z,8.32
2019-05-02T10:14:02.896Z,7.02
2019-05-02T10:15:03.910Z,7.26
2019-05-02T10:16:02.680Z,8.16
2019-05-02T10:17:07.505Z,7.44
2019-05-02T10:18:13.668Z,7.19
2019-05-02T10:19:11.361Z,7.71
2019-05-02T10:20:02.844Z,7.81
2019-05-02T10:21:07.510Z,9.04
2019-05-02T10:22:02.680Z,8.28
2019-05-02T10:23:03.577Z,7.88
2019-05-02T10:24:03.966Z,7.06
2019-05-02T10:25:03.923Z,8.59
2019-05-02T10:26:03.529Z,8.26
2019-05-02T10:27:08.704Z,8.75
2019-05-02T10:28:03.512Z,8.08
2019-05-02T10:29:03.635Z,8.56
2019-05-02T10:30:15.558Z,6.59
2019-05-02T10:31:03.622Z,6.59
2019-05-02T10:32:12.297Z,8
2019-05-02T10:33:03.552Z,8
2019-05-02T10:34:03.421Z,7.03
2019-05-02T10:35:03.373Z,7.66
2019-05-02T10:36:03.273Z,6.99
2019-05-02T10:37:03.357Z,6.68
2019-05-02T10:38:03.319Z,6.59
2019-05-02T10:39:03.111Z,6.59
2019-05-02T10:40:07.672Z,6.88
2019-05-02T10:41:04.994Z,7.91
2019-05-02T10:42:02.957Z,7.58
2019-05-02T10:43:03.044Z,6.82
2019-05-02T10:44:03.160Z,6.26
2019-05-02T10:45:02.972Z,6.5
2019-05-02T10:46:03.522Z,5.66
2019-05-02T10:47:03.551Z,5.66
2019-05-02T10:48:03.009Z,6.12
2019-05-02T10:49:02.982Z,5.98
2019-05-02T10:50:03.497Z,5.95
2019-05-02T10:51:03.465Z,6.16
2019-05-02T10:52:03.529Z,6.34
2019-05-02T10:53:15.587Z,5.68
2019-05-02T10:54:03.549Z,6.66
2019-05-02T10:55:03.670Z,6.83
2019-05-02T10:56:03.384Z,6.54
2019-05-02T10:57:03.263Z,7.06
2019-05-02T10:58:35.616Z,7.35
2019-05-02T10:59:03.394Z,6.76
2019-05-02T11:00:03.408Z,6.27
2019-05-02T11:01:03.409Z,6.68
2019-05-02T11:02:03.591Z,5.61
2019-05-02T11:03:02.932Z,6.79
2019-05-02T11:04:03.362Z,6.79
2019-05-02T11:05:03.110Z,6.26
2019-05-02T11:06:07.908Z,6.52
2019-05-02T11:07:02.843Z,6.52
2019-05-02T11:08:06.566Z,6.39
2019-05-02T11:09:06.322Z,6.39
2019-05-02T11:10:06.985Z,6.51
2019-05-02T11:11:06.366Z,5.75
2019-05-02T11:12:02.834Z,5.89
2019-05-02T11:13:03.806Z,6.19
2019-05-02T11:14:06.016Z,6.65
2019-05-02T11:15:02.896Z,6.05
2019-05-02T11:16:03.568Z,6.02
2019-05-02T11:17:03.436Z,6.27
2019-05-02T11:18:03.617Z,5.66
2019-05-02T11:19:03.403Z,6.35
2019-05-02T11:20:03.339Z,6.96
2019-05-02T11:21:08.403Z,5.78
2019-05-02T11:22:03.536Z,6.16
2019-05-02T11:23:03.399Z,6.71
2019-05-02T11:24:03.010Z,6.4
2019-05-02T11:25:03.591Z,5.74
2019-05-02T11:26:03.496Z,6.26
2019-05-02T11:27:03.201Z,5.91
2019-05-02T11:28:07.311Z,6.32
2019-05-02T11:29:03.439Z,6.62
2019-05-02T11:30:03.343Z,6.76
2019-05-02T11:31:09.848Z,6.45
2019-05-02T11:32:03.136Z,6.56
2019-05-02T11:33:03.304Z,6.58
2019-05-02T11:34:03.186Z,7.29
2019-05-02T11:35:03.376Z,6.56
2019-05-02T11:36:03.202Z,7.29
2019-05-02T11:37:02.896Z,7.2
2019-05-02T11:38:02.767Z,6.8
2019-05-02T11:39:21.386Z,6.62
2019-05-02T11:40:07.301Z,6.59
2019-05-02T11:41:03.747Z,6.53
2019-05-02T11:42:02.895Z,6.53
2019-05-02T11:43:06.962Z,6.41
2019-05-02T11:44:13.352Z,6.86
2019-05-02T11:45:03.667Z,6.86
2019-05-02T11:46:07.461Z,6.38
2019-05-02T11:47:03.523Z,6.42
2019-05-02T11:48:11.854Z,6.87
2019-05-02T11:49:03.415Z,6.75
2019-05-02T11:50:03.305Z,6.03
2019-05-02T11:51:12.013Z,5.86
2019-05-02T11:52:04.822Z,5.99
2019-05-02T11:53:22.519Z,6.16
2019-05-02T11:54:09.227Z,5.93
2019-05-02T11:55:03.460Z,6.21
2019-05-02T11:56:08.493Z,5.99
2019-05-02T11:57:03.190Z,5.72
2019-05-02T11:58:10.181Z,6.79
2019-05-02T11:59:03.949Z,5.73
2019-05-02T12:00:08.714Z,6.7
2019-05-02T12:01:05.597Z,6.54
2019-05-02T12:02:03.695Z,5.97
2019-05-02T12:03:03.756Z,6.09
2019-05-02T12:04:12.115Z,6.52
2019-05-02T12:05:03.492Z,5.86
2019-05-02T12:06:12.103Z,5.36
2019-05-02T12:07:05.086Z,6.54
2019-05-02T12:08:09.470Z,5.42
2019-05-02T12:09:03.542Z,6.28
2019-05-02T12:10:04.822Z,5.99
2019-05-02T12:11:04.006Z,6.34
2019-05-02T12:12:03.291Z,6.54
2019-05-02T12:13:11.061Z,5.94
2019-05-02T12:14:02.915Z,6.37
2019-05-02T12:15:03.125Z,6.82
2019-05-02T12:16:03.439Z,6.36
2019-05-02T12:17:03.449Z,6.33
2019-05-02T12:18:03.156Z,5.89
2019-05-02T12:19:12.553Z,6.51
2019-05-02T12:20:03.367Z,6.51
2019-05-02T12:21:03.108Z,5.94
2019-05-02T12:22:11.852Z,5.89
2019-05-02T12:23:03.794Z,5.89
2019-05-02T12:24:02.991Z,6.45
2019-05-02T12:25:03.929Z,6.93
2019-05-02T12:26:03.796Z,6.16
2019-05-02T12:27:03.849Z,5.68
2019-05-02T12:28:03.542Z,6.04
2019-05-02T12:29:03.502Z,7.04
2019-05-02T12:30:03.702Z,6.36
2019-05-02T12:31:03.554Z,6.29
2019-05-02T12:32:03.530Z,6.28
2019-05-02T12:33:03.625Z,6.71
2019-05-02T12:34:03.408Z,6.51
2019-05-02T12:35:47.798Z,6.62
2019-05-02T12:37:03.518Z,7.08
2019-05-02T12:38:03.402Z,7.2
2019-05-02T12:39:03.275Z,7.79
2019-05-02T12:40:02.953Z,6.9
2019-05-02T12:41:03.098Z,7.23
2019-05-02T12:42:04.365Z,6.82
2019-05-02T12:44:02.896Z,6.21
2019-05-02T12:45:03.076Z,6.45
2019-05-02T12:46:03.674Z,6.56
2019-05-02T12:47:02.885Z,6.4
2019-05-02T12:48:02.852Z,5.96
2019-05-02T12:49:03.135Z,5.63
2019-05-02T12:50:03.894Z,7.01
2019-05-02T12:51:03.740Z,6.23
2019-05-02T12:52:03.833Z,7.12
2019-05-02T12:53:03.454Z,5.98
2019-05-02T12:54:03.609Z,6.39
2019-05-02T12:55:03.714Z,6.12
2019-05-02T12:56:03.575Z,6.84
2019-05-02T12:57:03.535Z,5.65
2019-05-02T12:58:03.797Z,5.96
2019-05-02T12:59:03.525Z,5.59
2019-05-02T13:00:03.470Z,5.59
2019-05-02T13:01:03.320Z,5.27
2019-05-02T13:02:03.386Z,6.24
2019-05-02T13:03:03.041Z,5.12
2019-05-02T13:04:03.201Z,6.12
2019-05-02T13:05:03.473Z,5.29
2019-05-02T13:06:03.229Z,5.26
2019-05-02T13:07:02.978Z,4.72
2019-05-02T13:08:03.025Z,5.39
2019-05-02T13:09:03.340Z,5.21
2019-05-02T13:10:03.111Z,5.47
2019-05-02T13:11:07.017Z,5.69
2019-05-02T13:12:03.058Z,4.48
2019-05-02T13:13:03.046Z,4.52
2019-05-02T13:14:04.113Z,4.58
2019-05-02T13:15:03.313Z,4.58
2019-05-02T13:16:04.238Z,4.1
2019-05-02T13:17:06.120Z,4.32
2019-05-02T13:18:03.712Z,4.36
2019-05-02T13:19:06.498Z,4.55